createdAt,value
2019-01-20T00:00:58.739Z,5.40
2019-01-20T00:03:02.415Z,5.97
2019-01-20T00:05:05.301Z,5.57
2019-01-20T00:07:08.182Z,5.80
2019-01-20T00:09:11.154Z,6.05
2019-01-20T00:11:16.684Z,6.78
2019-01-20T00:13:17.071Z,6.12
2019-01-20T00:15:20.739Z,6.47
2019-01-20T00:17:24.402Z,5.93
2019-01-20T00:19:27.286Z,6.93
2019-01-20T00:21:30.693Z,7.37
2019-01-20T00:23:33.570Z,6.20
2019-01-20T00:25:36.499Z,6.70
2019-01-20T00:27:39.386Z,7.03
2019-01-20T00:29:42.991Z,7.03
2019-01-20T00:31:45.887Z,7.72
2019-01-20T00:33:48.793Z,8.50
2019-01-20T00:35:51.686Z,7.07
2019-01-20T00:37:55.401Z,6.90
2019-01-20T00:39:59.402Z,5.85
2019-01-20T00:42:03.094Z,6.55
2019-01-20T00:44:06.183Z,7.15
2019-01-20T00:46:09.871Z,8.00
2019-01-20T00:48:13.159Z,7.80
2019-01-20T00:50:16.063Z,6.65
2019-01-20T00:52:19.751Z,6.80
2019-01-20T00:54:22.630Z,8.50
2019-01-20T00:56:25.630Z,7.93
2019-01-20T00:58:29.728Z,8.60
2019-01-20T01:00:32.701Z,8.55
2019-01-20T01:02:35.620Z,7.28
2019-01-20T01:04:40.058Z,7.62
2019-01-20T01:06:43.400Z,6.90
2019-01-20T01:08:46.279Z,8.20
2019-01-20T01:10:49.258Z,7.93
2019-01-20T01:12:52.143Z,8.68
2019-01-20T01:14:55.039Z,7.97
2019-01-20T01:16:58.137Z,8.75
2019-01-20T01:19:01.806Z,8.50
2019-01-20T01:21:04.686Z,7.95
2019-01-20T01:23:07.774Z,7.95
2019-01-20T01:25:10.655Z,8.75
2019-01-20T01:27:13.539Z,9.23
2019-01-20T01:29:18.073Z,10.45
2019-01-20T01:31:22.571Z,9.50
2019-01-20T01:33:26.966Z,10.20
2019-01-20T01:35:30.182Z,8.82
2019-01-20T01:37:33.045Z,8.55
2019-01-20T01:39:35.991Z,8.80
2019-01-20T01:41:39.650Z,10.07
2019-01-20T01:43:43.707Z,9.80
2019-01-20T01:45:46.630Z,10.57
2019-01-20T01:47:49.544Z,9.48
2019-01-20T01:49:52.816Z,10.32
2019-01-20T01:51:56.507Z,9.60
2019-01-20T01:54:00.193Z,10.13
2019-01-20T01:56:03.494Z,8.93
2019-01-20T01:58:07.156Z,8.90
2019-01-20T02:00:14.227Z,11.57
2019-01-20T02:02:17.152Z,9.73
2019-01-20T02:04:20.028Z,10.38
2019-01-20T02:06:22.954Z,9.63
2019-01-20T02:08:27.420Z,10.60
2019-01-20T02:10:30.454Z,10.82
2019-01-20T02:12:34.127Z,11.48
2019-01-20T02:14:37.775Z,10.93
2019-01-20T02:16:41.172Z,9.50
2019-01-20T02:18:44.489Z,11.23
2019-01-20T02:20:47.379Z,8.67
2019-01-20T02:22:50.258Z,10.38
2019-01-20T02:24:53.186Z,11.73
2019-01-20T02:26:56.103Z,11.18
2019-01-20T02:28:58.998Z,9.80
2019-01-20T02:31:01.983Z,10.35
2019-01-20T02:33:05.083Z,10.43
2019-01-20T02:35:08.771Z,10.20
2019-01-20T02:37:12.066Z,10.88
2019-01-20T02:39:15.397Z,9.50
2019-01-20T02:41:18.335Z,11.98
2019-01-20T02:43:22.030Z,11.07
2019-01-20T02:45:26.426Z,10.65
2019-01-20T02:47:30.055Z,9.95
2019-01-20T02:49:34.223Z,11.43
2019-01-20T02:51:37.139Z,11.50
2019-01-20T02:53:40.030Z,11.60
2019-01-20T02:55:43.759Z,11.05
2019-01-20T02:57:47.440Z,10.90
2019-01-20T02:59:51.602Z,10.20
2019-01-20T03:01:54.515Z,11.30
2019-01-20T03:03:58.082Z,11.10
2019-01-20T03:06:01.843Z,12.98
2019-01-20T03:08:04.799Z,10.50
2019-01-20T03:10:08.109Z,9.57
2019-01-20T03:12:12.467Z,11.52
2019-01-20T03:14:15.538Z,11.50
2019-01-20T03:16:18.426Z,10.90
2019-01-20T03:18:21.858Z,11.53
2019-01-20T03:20:24.851Z,11.32
2019-01-20T03:22:28.535Z,11.07
2019-01-20T03:24:31.432Z,9.88
2019-01-20T03:26:35.274Z,9.88
2019-01-20T03:28:38.998Z,11.02
2019-01-20T03:30:41.916Z,10.57
2019-01-20T03:32:44.826Z,11.77
2019-01-20T03:34:47.726Z,12.25
2019-01-20T03:36:50.683Z,10.40
2019-01-20T03:38:54.830Z,11.10
2019-01-20T03:40:57.771Z,11.55
2019-01-20T03:43:01.438Z,10.07
2019-01-20T03:45:04.434Z,10.90
2019-01-20T03:47:07.299Z,11.07
2019-01-20T03:49:10.299Z,11.18
2019-01-20T03:51:14.528Z,11.07
2019-01-20T03:53:18.201Z,11.35
2019-01-20T03:55:21.188Z,11.48
2019-01-20T03:57:24.086Z,10.30
2019-01-20T03:59:27.765Z,10.73
2019-01-20T04:01:30.903Z,12.40
2019-01-20T04:03:33.799Z,10.77
2019-01-20T04:05:36.701Z,11.48
2019-01-20T04:07:39.610Z,9.73
2019-01-20T04:09:42.585Z,10.40
2019-01-20T04:11:45.575Z,11.43
2019-01-20T04:13:49.234Z,11.55
2019-01-20T04:15:52.130Z,11.02
2019-01-20T04:17:55.141Z,9.93
2019-01-20T04:19:58.823Z,12.37
2019-01-20T04:22:02.511Z,10.13
2019-01-20T04:24:06.232Z,11.52
2019-01-20T04:26:09.113Z,10.60
2019-01-20T04:28:12.886Z,12.20
2019-01-20T04:30:16.507Z,13.23
2019-01-20T04:32:19.387Z,12.10
2019-01-20T04:34:23.808Z,11.67
2019-01-20T04:36:26.787Z,11.63
2019-01-20T04:38:29.674Z,12.37
2019-01-20T04:40:34.074Z,11.87
2019-01-20T04:42:36.960Z,11.50
2019-01-20T04:44:39.946Z,10.85
2019-01-20T04:46:42.931Z,13.15
2019-01-20T04:48:46.443Z,11.43
2019-01-20T04:50:50.122Z,13.73
2019-01-20T04:52:53.013Z,11.35
2019-01-20T04:54:57.533Z,12.95
2019-01-20T04:57:01.255Z,12.05
2019-01-20T04:59:04.927Z,13.18
2019-01-20T05:01:08.604Z,11.50
2019-01-20T05:03:11.509Z,11.05
2019-01-20T05:05:14.484Z,11.85
2019-01-20T05:07:17.375Z,12.82
2019-01-20T05:09:21.914Z,11.75
2019-01-20T05:11:25.579Z,12.57
2019-01-20T05:13:29.283Z,12.57
2019-01-20T05:15:32.370Z,11.00
2019-01-20T05:17:35.269Z,12.70
2019-01-20T05:19:38.971Z,12.27
2019-01-20T05:21:42.634Z,11.63
2019-01-20T05:23:45.502Z,12.20
2019-01-20T05:25:48.634Z,10.37
2019-01-20T05:27:51.598Z,12.40
2019-01-20T05:29:54.479Z,13.07
2019-01-20T05:31:57.567Z,12.07
2019-01-20T05:34:01.239Z,12.70
2019-01-20T05:36:04.211Z,12.60
2019-01-20T05:38:07.229Z,12.93
2019-01-20T05:40:12.930Z,12.75
2019-01-20T05:42:16.678Z,11.10
2019-01-20T05:44:19.557Z,12.85
2019-01-20T05:46:22.452Z,11.55
2019-01-20T05:48:25.531Z,12.50
2019-01-20T05:50:30.538Z,13.40
2019-01-20T05:52:34.242Z,12.77
2019-01-20T05:54:37.158Z,12.02
2019-01-20T05:56:40.839Z,11.10
2019-01-20T05:58:43.731Z,10.93
2019-01-20T06:00:47.390Z,12.95
2019-01-20T06:02:50.308Z,10.88
2019-01-20T06:04:53.182Z,10.80
2019-01-20T06:06:56.082Z,11.82
2019-01-20T06:08:59.767Z,11.20
2019-01-20T06:11:02.675Z,13.13
2019-01-20T06:13:05.621Z,12.40
2019-01-20T06:15:16.293Z,11.77
2019-01-20T06:17:19.275Z,10.77
2019-01-20T06:19:22.159Z,10.90
2019-01-20T06:21:25.138Z,11.10
2019-01-20T06:23:28.126Z,11.47
2019-01-20T06:25:31.826Z,11.50
2019-01-20T06:27:34.815Z,11.93
2019-01-20T06:29:37.794Z,12.70
2019-01-20T06:31:41.495Z,11.27
2019-01-20T06:33:45.487Z,10.20
2019-01-20T06:35:48.826Z,11.10
2019-01-20T06:37:51.736Z,12.13
2019-01-20T06:39:54.627Z,11.68
2019-01-20T06:41:57.533Z,11.10
2019-01-20T06:44:01.584Z,10.30
2019-01-20T06:46:04.514Z,11.18
2019-01-20T06:48:08.926Z,11.88
2019-01-20T06:50:14.735Z,11.90
2019-01-20T06:52:17.618Z,11.68
2019-01-20T06:54:20.518Z,10.70
2019-01-20T06:56:24.243Z,11.32
2019-01-20T06:58:27.222Z,11.00
2019-01-20T07:00:30.244Z,11.07
2019-01-20T07:02:33.926Z,11.10
2019-01-20T07:04:37.588Z,11.12
2019-01-20T07:06:40.476Z,12.10
2019-01-20T07:08:43.469Z,10.48
2019-01-20T07:10:46.354Z,11.38
2019-01-20T07:12:49.341Z,10.73
2019-01-20T07:14:52.736Z,12.40
2019-01-20T07:16:55.607Z,10.70
2019-01-20T07:18:58.514Z,9.75
2019-01-20T07:21:02.171Z,10.85
2019-01-20T07:23:05.062Z,10.93
2019-01-20T07:25:07.951Z,11.18
2019-01-20T07:27:11.559Z,9.90
2019-01-20T07:29:15.246Z,11.40
2019-01-20T07:31:18.139Z,9.95
2019-01-20T07:33:21.806Z,9.82
2019-01-20T07:35:25.358Z,12.80
2019-01-20T07:37:29.322Z,10.88
2019-01-20T07:39:32.453Z,10.20
2019-01-20T07:41:36.226Z,11.50
2019-01-20T07:43:39.894Z,11.57
2019-01-20T07:45:42.787Z,11.20
2019-01-20T07:47:45.670Z,13.52
2019-01-20T07:49:49.280Z,12.27
2019-01-20T07:51:52.275Z,12.13
2019-01-20T07:53:55.947Z,10.93
2019-01-20T07:55:58.966Z,12.73
2019-01-20T07:58:01.889Z,10.90
2019-01-20T08:00:11.607Z,13.63
2019-01-20T08:02:14.557Z,12.10
2019-01-20T08:04:17.474Z,11.80
2019-01-20T08:06:20.446Z,11.13
2019-01-20T08:08:24.438Z,11.10
2019-01-20T08:10:27.541Z,10.63
2019-01-20T08:12:31.216Z,12.13
2019-01-20T08:14:35.619Z,12.65
2019-01-20T08:16:38.513Z,11.55
2019-01-20T08:18:41.412Z,13.00
2019-01-20T08:20:45.202Z,12.10
2019-01-20T08:22:49.172Z,11.68
2019-01-20T08:24:52.082Z,11.35
2019-01-20T08:26:55.754Z,10.68
2019-01-20T08:28:58.639Z,12.30
2019-01-20T08:31:01.584Z,11.32
2019-01-20T08:33:04.488Z,11.95
2019-01-20T08:35:07.528Z,13.23
2019-01-20T08:37:11.171Z,12.43
2019-01-20T08:39:14.083Z,13.25
2019-01-20T08:41:17.098Z,11.15
2019-01-20T08:43:20.728Z,11.50
2019-01-20T08:45:31.233Z,12.60
2019-01-20T08:47:35.030Z,10.27
2019-01-20T08:49:39.578Z,12.93
2019-01-20T08:51:43.754Z,11.20
2019-01-20T08:53:46.915Z,10.63
2019-01-20T08:55:49.918Z,10.90
2019-01-20T08:57:52.803Z,10.60
2019-01-20T08:59:55.699Z,10.23
2019-01-20T09:01:59.398Z,12.23
2019-01-20T09:04:03.051Z,11.05
2019-01-20T09:06:06.045Z,11.85
2019-01-20T09:08:08.954Z,11.90
2019-01-20T09:10:12.491Z,10.88
2019-01-20T09:12:15.769Z,10.87
2019-01-20T09:14:18.649Z,11.90
2019-01-20T09:16:22.452Z,11.43
2019-01-20T09:18:26.118Z,12.30
2019-01-20T09:20:29.246Z,10.93
2019-01-20T09:22:33.009Z,11.50
2019-01-20T09:24:35.995Z,11.73
2019-01-20T09:26:38.971Z,12.35
2019-01-20T09:28:42.135Z,10.95
2019-01-20T09:30:45.025Z,11.43
2019-01-20T09:32:48.045Z,11.85
2019-01-20T09:34:51.719Z,11.25
2019-01-20T09:36:54.723Z,10.52
2019-01-20T09:38:58.377Z,12.10
2019-01-20T09:41:01.258Z,12.90
2019-01-20T09:43:04.620Z,10.75
2019-01-20T09:45:07.150Z,11.57
2019-01-20T09:47:10.057Z,12.68
2019-01-20T09:49:13.020Z,12.73
2019-01-20T09:51:15.903Z,12.27
2019-01-20T09:53:18.798Z,11.85
2019-01-20T09:55:22.462Z,11.40
2019-01-20T09:57:25.454Z,11.77
2019-01-20T09:59:28.866Z,13.25
2019-01-20T10:01:33.154Z,12.93
2019-01-20T10:03:36.064Z,12.27
2019-01-20T10:05:39.706Z,11.82
2019-01-20T10:07:43.175Z,13.30
2019-01-20T10:09:46.070Z,11.93
2019-01-20T10:11:48.974Z,12.70
2019-01-20T10:13:54.876Z,11.80
2019-01-20T10:15:54.742Z,12.57
2019-01-20T10:17:57.814Z,11.30
2019-01-20T10:20:00.730Z,11.07
2019-01-20T10:22:03.630Z,12.25
2019-01-20T10:24:07.590Z,13.13
2019-01-20T10:26:11.327Z,10.98
2019-01-20T10:28:15.546Z,12.75
2019-01-20T10:30:26.898Z,12.95
2019-01-20T10:32:29.795Z,10.85
2019-01-20T10:34:33.611Z,12.30
2019-01-20T10:36:37.254Z,11.38
2019-01-20T10:38:40.165Z,12.88
2019-01-20T10:40:43.042Z,12.73
2019-01-20T10:42:45.947Z,12.77
2019-01-20T10:44:50.462Z,13.00
2019-01-20T10:46:53.344Z,11.48
2019-01-20T10:48:56.256Z,11.55
2019-01-20T10:50:59.912Z,11.27
2019-01-20T10:53:02.931Z,12.37
2019-01-20T10:55:06.570Z,12.85
2019-01-20T10:57:09.504Z,11.38
2019-01-20T10:59:13.171Z,11.15
2019-01-20T11:01:16.054Z,11.12
2019-01-20T11:03:19.049Z,10.50
2019-01-20T11:05:24.577Z,13.23
2019-01-20T11:07:26.424Z,13.13
2019-01-20T11:09:29.342Z,10.73
2019-01-20T11:11:32.991Z,13.00
2019-01-20T11:13:35.894Z,12.18
2019-01-20T11:15:38.786Z,10.68
2019-01-20T11:17:41.682Z,10.68
2019-01-20T11:19:44.746Z,11.88
2019-01-20T11:21:47.635Z,11.85
2019-01-20T11:23:50.533Z,12.02
2019-01-20T11:25:53.611Z,11.77
2019-01-20T11:27:56.994Z,12.05
2019-01-20T11:30:00.658Z,11.90
2019-01-20T11:32:03.572Z,12.20
2019-01-20T11:34:06.454Z,11.27
2019-01-20T11:36:10.111Z,11.47
2019-01-20T11:38:13.021Z,11.47
2019-01-20T11:40:16.151Z,12.30
2019-01-20T11:42:19.787Z,12.13
2019-01-20T11:44:22.910Z,11.50
2019-01-20T11:46:25.879Z,12.70
2019-01-20T11:48:28.893Z,12.02
2019-01-20T11:50:32.952Z,12.43
2019-01-20T11:52:35.804Z,12.60
2019-01-20T11:54:38.688Z,11.00
2019-01-20T11:56:41.728Z,11.88
2019-01-20T11:58:45.457Z,12.23
2019-01-20T12:00:49.223Z,12.57
2019-01-20T12:02:52.125Z,11.65
2019-01-20T12:04:55.771Z,11.30
2019-01-20T12:06:58.717Z,10.90
2019-01-20T12:09:02.395Z,12.13
2019-01-20T12:11:05.290Z,11.93
2019-01-20T12:13:08.927Z,11.50
2019-01-20T12:15:11.842Z,11.45
2019-01-20T12:17:14.757Z,11.45
2019-01-20T12:19:18.546Z,9.73
2019-01-20T12:21:21.715Z,11.88
2019-01-20T12:23:24.718Z,11.20
2019-01-20T12:25:28.365Z,12.30
2019-01-20T12:27:31.279Z,11.75
2019-01-20T12:29:34.278Z,11.23
2019-01-20T12:31:37.926Z,12.00
2019-01-20T12:33:40.818Z,10.52
2019-01-20T12:35:43.699Z,12.30
2019-01-20T12:37:46.583Z,11.25
2019-01-20T12:39:49.607Z,12.50
2019-01-20T12:41:53.267Z,12.00
2019-01-20T12:43:56.132Z,10.77
2019-01-20T12:45:59.030Z,10.93
2019-01-20T12:48:01.915Z,12.15
2019-01-20T12:50:04.790Z,11.25
2019-01-20T12:52:07.686Z,11.25
2019-01-20T12:54:10.579Z,11.80
2019-01-20T12:56:14.263Z,12.50
2019-01-20T12:58:17.150Z,12.70
2019-01-20T13:00:20.036Z,12.68
2019-01-20T13:02:22.914Z,11.00
2019-01-20T13:04:25.810Z,11.47
2019-01-20T13:06:28.739Z,11.10
2019-01-20T13:08:31.620Z,11.93
2019-01-20T13:10:34.810Z,11.30
2019-01-20T13:12:37.716Z,10.27
2019-01-20T13:14:40.740Z,11.90
2019-01-20T13:16:44.416Z,9.65
2019-01-20T13:18:47.514Z,10.95
2019-01-20T13:20:51.190Z,12.10
2019-01-20T13:22:54.109Z,10.88
2019-01-20T13:24:57.775Z,11.30
2019-01-20T13:27:00.735Z,11.60
2019-01-20T13:29:03.698Z,9.98
2019-01-20T13:31:06.586Z,10.98
2019-01-20T13:33:09.984Z,10.93
2019-01-20T13:35:12.886Z,12.68
2019-01-20T13:37:15.778Z,10.80
2019-01-20T13:39:18.770Z,11.85
2019-01-20T13:41:22.440Z,11.80
2019-01-20T13:43:25.319Z,13.30
2019-01-20T13:45:28.197Z,12.00
2019-01-20T13:47:31.167Z,12.23
2019-01-20T13:49:35.871Z,11.74
2019-01-20T13:51:39.628Z,11.98
2019-01-20T13:53:42.645Z,10.50
2019-01-20T13:55:46.266Z,10.82
2019-01-20T13:57:49.154Z,11.00
2019-01-20T13:59:52.058Z,9.13
2019-01-20T14:01:54.947Z,12.57
2019-01-20T14:03:57.848Z,12.55
2019-01-20T14:06:01.595Z,11.87
2019-01-20T14:08:04.474Z,11.77
2019-01-20T14:10:10.116Z,10.95
2019-01-20T14:12:13.010Z,12.07
2019-01-20T14:14:15.895Z,10.52
2019-01-20T14:16:19.238Z,10.93
2019-01-20T14:18:22.878Z,11.12
2019-01-20T14:20:25.745Z,11.60
2019-01-20T14:22:29.000Z,11.77
2019-01-20T14:24:32.948Z,10.43
2019-01-20T14:26:35.874Z,9.93
2019-01-20T14:28:38.894Z,12.50
2019-01-20T14:30:42.803Z,11.00
2019-01-20T14:32:45.730Z,11.63
2019-01-20T14:34:48.825Z,11.00
2019-01-20T14:36:51.699Z,10.00
2019-01-20T14:38:54.576Z,12.13
2019-01-20T14:40:57.500Z,10.43
2019-01-20T14:43:01.140Z,11.45
2019-01-20T14:45:04.050Z,11.85
2019-01-20T14:47:06.934Z,11.07
2019-01-20T14:49:09.842Z,11.85
2019-01-20T14:51:13.919Z,12.45
2019-01-20T14:53:16.799Z,12.45
2019-01-20T14:55:19.703Z,11.48
2019-01-20T14:57:23.483Z,9.85
2019-01-20T14:59:27.134Z,10.43
2019-01-20T15:01:30.023Z,9.47
2019-01-20T15:03:32.922Z,11.77
2019-01-20T15:05:35.822Z,10.45
2019-01-20T15:07:38.715Z,9.98
2019-01-20T15:09:41.687Z,10.80
2019-01-20T15:11:44.613Z,11.05
2019-01-20T15:13:47.584Z,10.10
2019-01-20T15:15:51.256Z,9.50
2019-01-20T15:17:54.128Z,10.10
2019-01-20T15:19:57.063Z,11.80
2019-01-20T15:22:00.210Z,11.15
2019-01-20T15:24:03.850Z,9.57
2019-01-20T15:26:06.727Z,10.30
2019-01-20T15:28:09.623Z,10.80
2019-01-20T15:30:29.202Z,10.88
2019-01-20T15:32:32.081Z,10.80
2019-01-20T15:34:35.054Z,9.82
2019-01-20T15:36:37.981Z,10.70
2019-01-20T15:38:40.863Z,10.20
2019-01-20T15:40:43.953Z,11.10
2019-01-20T15:42:47.632Z,10.88
2019-01-20T15:44:50.522Z,9.80
2019-01-20T15:46:53.539Z,11.75
2019-01-20T15:48:57.174Z,11.90
2019-01-20T15:51:00.090Z,10.20
2019-01-20T15:53:03.187Z,9.73
2019-01-20T15:55:06.337Z,11.33
2019-01-20T15:57:09.221Z,10.13
2019-01-20T15:59:12.538Z,9.90
2019-01-20T16:01:16.182Z,9.97
2019-01-20T16:03:19.082Z,10.97
2019-01-20T16:05:22.094Z,10.30
2019-01-20T16:07:25.022Z,10.23
2019-01-20T16:09:27.913Z,10.45
2019-01-20T16:11:31.397Z,10.35
2019-01-20T16:13:33.712Z,10.90
2019-01-20T16:15:36.598Z,10.48
2019-01-20T16:17:39.539Z,11.93
2019-01-20T16:19:42.424Z,10.98
2019-01-20T16:21:45.306Z,11.18
2019-01-20T16:23:48.223Z,11.57
2019-01-20T16:25:51.094Z,9.18
2019-01-20T16:27:53.978Z,10.52
2019-01-20T16:29:56.878Z,10.40
2019-01-20T16:32:00.525Z,11.60
2019-01-20T16:34:03.470Z,10.85
2019-01-20T16:36:07.127Z,11.77
2019-01-20T16:38:10.024Z,10.10
2019-01-20T16:40:12.904Z,12.27
2019-01-20T16:42:15.990Z,10.73
2019-01-20T16:44:18.875Z,10.25
2019-01-20T16:46:21.755Z,10.68
2019-01-20T16:48:24.749Z,10.32
2019-01-20T16:50:27.637Z,10.82
2019-01-20T16:52:31.426Z,10.80
2019-01-20T16:54:34.539Z,12.27
2019-01-20T16:56:37.765Z,12.53
2019-01-20T16:58:40.638Z,11.10
2019-01-20T17:00:43.612Z,10.40
2019-01-20T17:02:47.386Z,12.27
2019-01-20T17:04:51.056Z,10.88
2019-01-20T17:06:53.973Z,11.48
2019-01-20T17:08:57.606Z,11.65
2019-01-20T17:11:00.965Z,11.63
2019-01-20T17:13:04.730Z,11.80
2019-01-20T17:15:07.648Z,12.35
2019-01-20T17:17:11.308Z,11.43
2019-01-20T17:19:17.653Z,11.30
2019-01-20T17:21:18.484Z,11.50
2019-01-20T17:23:21.359Z,11.00
2019-01-20T17:25:24.339Z,11.95
2019-01-20T17:27:27.206Z,11.05
2019-01-20T17:29:30.090Z,12.15
2019-01-20T17:31:33.127Z,12.05
2019-01-20T17:33:37.594Z,11.37
2019-01-20T17:35:40.798Z,11.57
2019-01-20T17:37:43.865Z,12.17
2019-01-20T17:39:46.738Z,12.00
2019-01-20T17:41:49.969Z,12.67
2019-01-20T17:43:53.058Z,12.20
2019-01-20T17:45:55.975Z,12.73
2019-01-20T17:47:59.608Z,14.00
2019-01-20T17:50:02.635Z,12.70
2019-01-20T17:52:05.526Z,13.53
2019-01-20T17:54:08.935Z,13.27
2019-01-20T17:56:11.883Z,13.27
2019-01-20T17:58:15.679Z,11.97
2019-01-20T18:00:19.375Z,12.77
2019-01-20T18:02:22.368Z,13.85
2019-01-20T18:04:25.250Z,13.32
2019-01-20T18:06:28.166Z,12.50
2019-01-20T18:08:31.821Z,12.13
2019-01-20T18:10:34.823Z,13.32
2019-01-20T18:12:38.478Z,11.80
2019-01-20T18:14:41.387Z,13.73
2019-01-20T18:16:44.263Z,11.98
2019-01-20T18:18:47.134Z,13.10
2019-01-20T18:20:50.150Z,13.75
2019-01-20T18:22:53.812Z,12.57
2019-01-20T18:24:57.236Z,13.57
2019-01-20T18:27:01.015Z,13.60
2019-01-20T18:29:03.930Z,12.60
2019-01-20T18:31:07.631Z,13.25
2019-01-20T18:33:11.287Z,11.15
2019-01-20T18:35:14.171Z,12.90
2019-01-20T18:37:17.075Z,12.63
2019-01-20T18:39:19.957Z,12.83
2019-01-20T18:41:22.939Z,11.82
2019-01-20T18:43:25.822Z,11.50
2019-01-20T18:45:29.719Z,12.32
2019-01-20T18:47:33.242Z,11.82
2019-01-20T18:49:36.891Z,12.63
2019-01-20T18:51:39.885Z,13.00
2019-01-20T18:53:42.754Z,11.93
2019-01-20T18:55:45.684Z,12.82
2019-01-20T18:57:49.762Z,12.77
2019-01-20T18:59:52.647Z,12.90
2019-01-20T19:01:55.652Z,11.45
2019-01-20T19:03:59.338Z,12.68
2019-01-20T19:06:02.995Z,11.63
2019-01-20T19:08:06.368Z,12.53
2019-01-20T19:10:10.022Z,13.45
2019-01-20T19:12:13.128Z,12.20
2019-01-20T19:14:16.774Z,12.80
2019-01-20T19:16:19.695Z,13.32
2019-01-20T19:18:22.586Z,13.57
2019-01-20T19:20:27.002Z,13.53
2019-01-20T19:22:29.972Z,13.90
2019-01-20T19:24:32.854Z,13.80
2019-01-20T19:26:36.538Z,14.90
2019-01-20T19:28:39.534Z,15.07
2019-01-20T19:30:42.510Z,13.60
2019-01-20T19:32:45.522Z,14.17
2019-01-20T19:34:49.197Z,14.80
2019-01-20T19:36:52.101Z,13.40
2019-01-20T19:38:55.767Z,13.45
2019-01-20T19:40:58.661Z,13.27
2019-01-20T19:43:01.573Z,13.27
2019-01-20T19:45:05.220Z,15.15
2019-01-20T19:47:08.565Z,15.95
2019-01-20T19:49:12.198Z,15.68
2019-01-20T19:51:15.086Z,14.55
2019-01-20T19:53:18.090Z,14.77
2019-01-20T19:55:24.194Z,15.75
2019-01-20T19:57:26.159Z,14.35
2019-01-20T19:59:29.106Z,14.20
2019-01-20T20:01:31.966Z,15.50
2019-01-20T20:03:34.868Z,13.60
2019-01-20T20:05:37.746Z,14.18
2019-01-20T20:07:41.522Z,14.57
2019-01-20T20:09:45.338Z,13.43
2019-01-20T20:11:48.355Z,14.50
2019-01-20T20:13:52.531Z,15.43
2019-01-20T20:15:55.423Z,13.62
2019-01-20T20:17:59.083Z,13.77
2019-01-20T20:20:02.005Z,13.98
2019-01-20T20:22:05.750Z,14.38
2019-01-20T20:24:08.986Z,14.00
2019-01-20T20:26:13.398Z,13.50
2019-01-20T20:28:16.282Z,13.02
2019-01-20T20:30:21.601Z,13.48
2019-01-20T20:32:24.475Z,15.00
2019-01-20T20:34:27.351Z,15.35
2019-01-20T20:36:30.250Z,13.52
2019-01-20T20:38:33.702Z,15.02
2019-01-20T20:40:36.651Z,14.15
2019-01-20T20:42:40.329Z,13.30
2019-01-20T20:44:43.278Z,13.80
2019-01-20T20:46:46.195Z,14.70
2019-01-20T20:48:49.081Z,12.45
2019-01-20T20:50:51.998Z,16.03
2019-01-20T20:52:55.643Z,13.40
2019-01-20T20:54:58.559Z,15.00
2019-01-20T20:57:02.224Z,13.87
2019-01-20T20:59:05.127Z,14.00
2019-01-20T21:01:08.038Z,14.23
2019-01-20T21:03:10.934Z,13.53
2019-01-20T21:05:13.928Z,13.98
2019-01-20T21:07:16.822Z,14.32
2019-01-20T21:09:19.709Z,14.75
2019-01-20T21:11:22.613Z,13.50
2019-01-20T21:13:25.505Z,14.00
2019-01-20T21:15:28.456Z,13.57
2019-01-20T21:17:31.387Z,13.13
2019-01-20T21:19:34.282Z,14.77
2019-01-20T21:21:37.203Z,12.48
2019-01-20T21:23:40.098Z,13.50
2019-01-20T21:25:42.997Z,13.82
2019-01-20T21:27:46.665Z,12.77
2019-01-20T21:29:49.562Z,14.48
2019-01-20T21:31:52.582Z,11.85
2019-01-20T21:33:56.210Z,12.20
2019-01-20T21:35:59.122Z,12.10
2019-01-20T21:38:06.802Z,12.68
2019-01-20T21:40:05.690Z,13.85
2019-01-20T21:42:08.593Z,11.60
2019-01-20T21:44:11.479Z,12.10
2019-01-20T21:46:15.243Z,13.80
2019-01-20T21:48:18.131Z,12.40
2019-01-20T21:50:21.110Z,13.25
2019-01-20T21:52:24.141Z,12.60
2019-01-20T21:54:27.799Z,13.60
2019-01-20T21:56:30.704Z,11.65
2019-01-20T21:58:33.595Z,11.77
2019-01-20T22:00:37.575Z,12.00
2019-01-20T22:02:40.475Z,12.50
2019-01-20T22:04:43.531Z,12.63
2019-01-20T22:06:47.259Z,11.23
2019-01-20T22:08:50.230Z,10.90
2019-01-20T22:10:53.109Z,12.75
2019-01-20T22:12:56.032Z,11.45
2019-01-20T22:14:59.663Z,12.00
2019-01-20T22:17:02.580Z,11.65
2019-01-20T22:19:05.466Z,11.30
2019-01-20T22:21:09.122Z,12.05
2019-01-20T22:23:12.028Z,12.27
2019-01-20T22:25:14.930Z,12.98
2019-01-20T22:27:17.998Z,11.35
2019-01-20T22:29:20.983Z,12.65
2019-01-20T22:31:24.486Z,10.67
2019-01-20T22:33:27.887Z,11.32
2019-01-20T22:35:32.531Z,10.68
2019-01-20T22:37:36.183Z,11.52
2019-01-20T22:39:39.063Z,11.65
2019-01-20T22:41:41.950Z,10.75
2019-01-20T22:43:44.935Z,12.05
2019-01-20T22:45:48.538Z,11.80
2019-01-20T22:47:51.862Z,11.43
2019-01-20T22:49:55.531Z,10.85
2019-01-20T22:51:58.414Z,12.13
2019-01-20T22:54:02.838Z,11.10
2019-01-20T22:56:06.526Z,11.35
2019-01-20T22:58:09.430Z,11.68
2019-01-20T23:00:24.947Z,11.05
2019-01-20T23:02:27.846Z,10.53
2019-01-20T23:04:31.571Z,12.30
2019-01-20T23:06:35.301Z,12.55
2019-01-20T23:08:38.157Z,14.00
2019-01-20T23:10:41.806Z,11.95
2019-01-20T23:12:44.686Z,11.85
2019-01-20T23:14:47.590Z,12.90
2019-01-20T23:16:50.474Z,12.35
2019-01-20T23:18:53.392Z,14.05
2019-01-20T23:20:57.035Z,12.70
2019-01-20T23:22:59.927Z,14.13
2019-01-20T23:25:02.882Z,12.60
2019-01-20T23:27:05.710Z,13.45
2019-01-20T23:29:08.610Z,12.98
2019-01-20T23:31:12.267Z,14.18
2019-01-20T23:33:15.175Z,13.27
2019-01-20T23:35:18.079Z,12.50
2019-01-20T23:37:21.067Z,13.07
2019-01-20T23:39:24.722Z,13.03
2019-01-20T23:41:27.607Z,12.82
2019-01-20T23:43:30.504Z,12.65
2019-01-20T23:45:33.503Z,11.87
2019-01-20T23:47:36.373Z,13.50
2019-01-20T23:49:39.375Z,12.73
2019-01-20T23:51:43.021Z,11.27
2019-01-20T23:53:45.970Z,11.00
2019-01-20T23:55:48.881Z,12.50
2019-01-20T23:57:51.762Z,11.90
2019-01-20T23:59:54.668Z,12.07
